createdAt,value
2023-03-16T00:02:41.379Z,100937.84
2023-03-16T00:07:45.809Z,100934.56
2023-03-16T00:12:54.445Z,100937.22
2023-03-16T00:18:00.773Z,100933.06
2023-03-16T00:23:05.998Z,100939.16
2023-03-16T00:28:24.802Z,100936.69
2023-03-16T00:33:34.844Z,100943.69
2023-03-16T00:38:41.238Z,100940.28
2023-03-16T00:43:47.058Z,100949.81
2023-03-16T00:48:55.373Z,100954.22
2023-03-16T00:53:59.848Z,100961.22
2023-03-16T00:59:07.390Z,100959.53
2023-03-16T01:04:14.719Z,100962.25
2023-03-16T01:09:20.680Z,100966.72
2023-03-16T01:14:28.997Z,100957.31
2023-03-16T01:19:37.613Z,100958.25
2023-03-16T01:24:45.803Z,100954.81
2023-03-16T01:29:52.014Z,100947.09
2023-03-16T01:34:56.726Z,100963.41
2023-03-16T01:40:03.460Z,100950.53
2023-03-16T01:45:41.834Z,100948.00
2023-03-16T01:56:20.358Z,100950.81
2023-03-16T02:01:28.789Z,100943.03
2023-03-16T02:06:38.457Z,100934.47
2023-03-16T02:11:45.418Z,100932.00
2023-03-16T02:16:53.111Z,100937.19
2023-03-16T02:22:03.278Z,100932.16
2023-03-16T02:27:10.845Z,100925.41
2023-03-16T02:32:21.738Z,100934.88
2023-03-16T02:37:27.561Z,100936.69
2023-03-16T02:42:35.688Z,100943.63
2023-03-16T02:47:47.297Z,100938.59
2023-03-16T02:52:55.062Z,100943.78
2023-03-16T02:58:00.165Z,100943.88
2023-03-16T03:03:21.782Z,100949.03
2023-03-16T03:08:34.587Z,100942.38
2023-03-16T03:13:44.649Z,100946.69
2023-03-16T03:18:53.304Z,100961.25
2023-03-16T03:24:03.134Z,100971.53
2023-03-16T03:29:10.322Z,100959.69
2023-03-16T03:34:18.450Z,100963.94
2023-03-16T03:39:26.625Z,100962.19
2023-03-16T03:44:34.771Z,100959.69
2023-03-16T03:49:52.431Z,100968.34
2023-03-16T03:54:58.595Z,100967.44
2023-03-16T04:00:09.237Z,100958.94
2023-03-16T04:05:20.495Z,100951.22
2023-03-16T04:10:24.846Z,100946.97
2023-03-16T04:15:30.865Z,100955.47
2023-03-16T04:20:38.670Z,100952.94
2023-03-16T04:25:49.819Z,100949.53
2023-03-16T04:30:54.999Z,100948.66
2023-03-16T04:36:04.227Z,100956.34
2023-03-16T04:41:10.353Z,100946.06
2023-03-16T04:46:16.993Z,100952.06
2023-03-16T04:51:25.191Z,100950.34
2023-03-16T04:56:35.026Z,100954.63
2023-03-16T05:01:50.971Z,100950.34
2023-03-16T05:06:58.382Z,100959.81
2023-03-16T05:12:11.510Z,100953.81
2023-03-16T05:17:19.448Z,100958.19
2023-03-16T05:22:28.817Z,100962.44
2023-03-16T05:27:46.547Z,100969.34
2023-03-16T05:32:55.350Z,100970.13
2023-03-16T05:38:03.932Z,100971.75
2023-03-16T05:43:10.888Z,100969.84
2023-03-16T05:48:16.248Z,100979.16
2023-03-16T05:53:31.179Z,100977.25
2023-03-16T05:58:38.924Z,100974.41
2023-03-16T06:03:45.472Z,100984.50
2023-03-16T06:08:56.764Z,100988.44
2023-03-16T06:14:09.354Z,100995.88
2023-03-16T06:19:15.979Z,100988.66
2023-03-16T06:24:22.160Z,100991.72
2023-03-16T06:29:33.563Z,100985.22
2023-03-16T06:34:39.464Z,100989.84
2023-03-16T06:39:48.477Z,100983.34
2023-03-16T06:44:53.499Z,100991.13
2023-03-16T06:50:04.539Z,100986.06
2023-03-16T06:55:17.979Z,100992.56
2023-03-16T07:00:23.554Z,100974.53
2023-03-16T07:05:32.125Z,100977.56
2023-03-16T07:10:45.456Z,100976.50
2023-03-16T07:15:54.223Z,100970.06
2023-03-16T07:21:02.046Z,100976.47
2023-03-16T07:26:10.398Z,100973.84
2023-03-16T07:31:16.906Z,100970.75
2023-03-16T07:36:22.457Z,100967.06
2023-03-16T07:41:37.861Z,100962.91
2023-03-16T07:46:43.311Z,100958.97
2023-03-16T07:51:51.345Z,100967.34
2023-03-16T07:56:58.505Z,100962.91
2023-03-16T08:02:03.656Z,100972.44
2023-03-16T08:07:11.706Z,100978.34
2023-03-16T08:12:20.211Z,100974.78
2023-03-16T08:17:26.834Z,100976.72
2023-03-16T08:22:33.697Z,100972.59
2023-03-16T08:27:43.411Z,100988.91
2023-03-16T08:32:48.004Z,100995.00
2023-03-16T08:37:57.223Z,100995.38
2023-03-16T08:43:04.293Z,101003.88
2023-03-16T08:48:13.359Z,100998.59
2023-03-16T08:53:17.712Z,100996.72
2023-03-16T08:58:29.143Z,101001.63
2023-03-16T09:03:35.369Z,101008.19
2023-03-16T09:08:40.944Z,101007.50
2023-03-16T09:13:48.932Z,100995.75
2023-03-16T09:18:56.398Z,101003.09
2023-03-16T09:24:00.725Z,100996.00
2023-03-16T09:29:08.105Z,100988.22
2023-03-16T09:34:13.942Z,100986.72
2023-03-16T09:39:20.033Z,101001.09
2023-03-16T09:44:43.397Z,100995.03
2023-03-16T09:49:59.330Z,100994.94
2023-03-16T09:55:13.582Z,100992.56
2023-03-16T10:00:26.117Z,100995.16
2023-03-16T10:05:33.658Z,100989.31
2023-03-16T10:10:52.045Z,101002.44
2023-03-16T10:16:03.975Z,100991.03
2023-03-16T10:21:15.290Z,100998.19
2023-03-16T10:26:29.346Z,100991.56
2023-03-16T10:31:38.503Z,100983.66
2023-03-16T10:36:48.584Z,100976.28
2023-03-16T10:42:00.815Z,100984.28
2023-03-16T10:47:08.916Z,100974.06
2023-03-16T10:52:20.909Z,100971.09
2023-03-16T10:57:33.998Z,100958.41
2023-03-16T11:02:41.528Z,100957.16
2023-03-16T11:07:59.252Z,100957.75
2023-03-16T11:13:16.995Z,100942.84
2023-03-16T11:18:37.287Z,100932.56
2023-03-16T11:23:46.240Z,100929.28
2023-03-16T11:28:59.401Z,100927.94
2023-03-16T11:34:20.127Z,100923.09
2023-03-16T11:39:38.439Z,100921.06
2023-03-16T11:44:50.604Z,100914.72
2023-03-16T11:50:06.232Z,100916.16
2023-03-16T11:55:25.320Z,100897.47
2023-03-16T12:00:38.651Z,100900.47
2023-03-16T12:06:22.368Z,100888.28
2023-03-16T12:11:32.386Z,100883.28
2023-03-16T12:16:49.583Z,100874.91
2023-03-16T12:22:07.014Z,100875.50
2023-03-16T12:27:30.599Z,100857.53
2023-03-16T12:33:01.579Z,100852.03
2023-03-16T12:38:32.295Z,100831.50
2023-03-16T12:43:50.275Z,100826.03
2023-03-16T12:49:05.946Z,100817.22
2023-03-16T12:54:24.185Z,100815.56
2023-03-16T12:59:40.708Z,100811.28
2023-03-16T13:04:51.795Z,100807.34
2023-03-16T13:10:05.767Z,100802.44
2023-03-16T13:15:33.031Z,100794.03
2023-03-16T13:20:54.805Z,100802.81
2023-03-16T13:26:28.866Z,100792.94
2023-03-16T13:31:42.732Z,100794.59
2023-03-16T13:36:47.735Z,100798.03
2023-03-16T13:42:18.287Z,100790.31
2023-03-16T13:47:28.345Z,100803.97
2023-03-16T13:52:37.292Z,100791.84
2023-03-16T13:57:45.643Z,100803.41
2023-03-16T14:02:54.479Z,100807.22
2023-03-16T14:08:01.718Z,100791.00
2023-03-16T14:13:27.733Z,100770.56
2023-03-16T14:18:37.810Z,100765.44
2023-03-16T14:23:46.648Z,100749.38
2023-03-16T14:29:06.175Z,100749.88
2023-03-16T14:34:27.385Z,100751.03
2023-03-16T14:39:36.900Z,100728.13
2023-03-16T14:44:44.218Z,100730.00
2023-03-16T14:49:49.810Z,100726.69
2023-03-16T14:54:57.102Z,100707.31
2023-03-16T15:00:03.550Z,100690.09
2023-03-16T15:05:10.149Z,100691.28
2023-03-16T15:10:25.470Z,100675.94
2023-03-16T15:15:32.889Z,100673.47
2023-03-16T15:20:41.620Z,100677.84
2023-03-16T15:25:50.809Z,100669.19
2023-03-16T15:31:06.662Z,100683.66
2023-03-16T15:36:17.516Z,100664.91
2023-03-16T15:41:23.173Z,100667.97
2023-03-16T15:46:30.271Z,100663.94
2023-03-16T15:51:38.471Z,100671.16
2023-03-16T15:56:54.434Z,100644.66
2023-03-16T16:02:01.530Z,100660.56
2023-03-16T16:07:12.149Z,100654.53
2023-03-16T16:12:19.667Z,100656.44
2023-03-16T16:17:53.860Z,100643.38
2023-03-16T16:23:08.381Z,100652.16
2023-03-16T16:28:16.979Z,100636.59
2023-03-16T16:33:31.415Z,100635.88
2023-03-16T16:38:36.256Z,100639.19
2023-03-16T16:43:44.653Z,100633.88
2023-03-16T16:49:19.873Z,100638.63
2023-03-16T16:54:27.921Z,100638.00
2023-03-16T16:59:35.125Z,100634.06
2023-03-16T17:04:40.762Z,100638.81
2023-03-16T17:09:45.973Z,100630.59
2023-03-16T17:14:50.191Z,100626.63
2023-03-16T17:19:59.382Z,100620.84
2023-03-16T17:25:25.234Z,100618.47
2023-03-16T17:30:33.798Z,100615.47
2023-03-16T17:35:43.770Z,100625.69
2023-03-16T17:40:53.553Z,100609.06
2023-03-16T17:45:58.852Z,100608.34
2023-03-16T17:51:03.483Z,100611.91
2023-03-16T17:56:19.306Z,100612.97
2023-03-16T18:01:26.719Z,100616.16
2023-03-16T18:06:36.365Z,100617.91
2023-03-16T18:11:49.562Z,100605.75
2023-03-16T18:16:55.345Z,100609.03
2023-03-16T18:22:02.622Z,100602.72
2023-03-16T18:27:09.312Z,100599.00
2023-03-16T18:32:24.159Z,100599.31
2023-03-16T18:37:32.383Z,100591.72
2023-03-16T18:42:39.451Z,100592.91
2023-03-16T18:47:55.780Z,100583.59
2023-03-16T18:53:03.546Z,100583.34
2023-03-16T18:58:17.429Z,100592.09
2023-03-16T19:03:30.085Z,100599.63
2023-03-16T19:08:35.441Z,100596.75
2023-03-16T19:13:42.803Z,100596.84
2023-03-16T19:18:49.978Z,100605.81
2023-03-16T19:23:58.887Z,100612.22
2023-03-16T19:29:04.932Z,100614.41
2023-03-16T19:34:20.052Z,100602.00
2023-03-16T19:39:24.360Z,100592.47
2023-03-16T19:44:32.268Z,100599.72
2023-03-16T19:49:36.867Z,100597.47
2023-03-16T19:54:46.994Z,100600.16
2023-03-16T20:00:01.335Z,100599.31
2023-03-16T20:05:21.845Z,100592.44
2023-03-16T20:10:39.778Z,100596.13
2023-03-16T20:15:48.063Z,100576.63
2023-03-16T20:20:52.166Z,100573.44
2023-03-16T20:26:01.381Z,100572.13
2023-03-16T20:31:18.657Z,100562.97
2023-03-16T20:36:23.974Z,100560.16
2023-03-16T20:41:37.233Z,100554.66
2023-03-16T20:46:45.737Z,100552.56
2023-03-16T20:51:53.609Z,100561.31
2023-03-16T20:56:57.628Z,100550.69
2023-03-16T21:02:40.242Z,100555.66
2023-03-16T21:07:47.171Z,100556.34
2023-03-16T21:12:56.905Z,100559.47
2023-03-16T21:18:05.152Z,100548.53
2023-03-16T21:23:16.314Z,100545.41
2023-03-16T21:28:22.018Z,100541.56
2023-03-16T21:33:36.769Z,100534.13
2023-03-16T21:38:55.278Z,100536.41
2023-03-16T21:43:58.819Z,100516.84
2023-03-16T21:49:15.295Z,100512.94
2023-03-16T21:54:25.899Z,100512.53
2023-03-16T21:59:32.462Z,100504.31
2023-03-16T22:04:45.208Z,100491.69
2023-03-16T22:09:54.228Z,100497.09
2023-03-16T22:15:03.202Z,100489.59
2023-03-16T22:20:18.864Z,100493.09
2023-03-16T22:25:27.982Z,100495.81
2023-03-16T22:30:33.795Z,100485.53
2023-03-16T22:35:40.604Z,100485.63
2023-03-16T22:40:47.926Z,100493.50
2023-03-16T22:45:57.760Z,100494.53
2023-03-16T22:51:05.859Z,100477.41
2023-03-16T22:56:12.081Z,100467.28
2023-03-16T23:01:20.906Z,100460.63
2023-03-16T23:06:30.230Z,100458.25
2023-03-16T23:11:36.129Z,100454.28
2023-03-16T23:16:43.336Z,100435.53
2023-03-16T23:21:49.978Z,100430.66
2023-03-16T23:27:03.994Z,100433.53
2023-03-16T23:32:09.542Z,100421.78
2023-03-16T23:37:16.604Z,100410.84
2023-03-16T23:42:20.737Z,100404.19
2023-03-16T23:47:27.448Z,100403.56
2023-03-16T23:52:35.711Z,100392.53
2023-03-16T23:57:45.417Z,100403.09
